createdAt,value
2018-04-24T00:00:58.477Z,101044.96
2018-04-24T00:03:25.983Z,101029.00
2018-04-24T00:05:53.512Z,101026.30
2018-04-24T00:08:21.061Z,101030.44
2018-04-24T00:10:48.586Z,101029.63
2018-04-24T00:13:16.148Z,101036.05
2018-04-24T00:15:43.687Z,101030.65
2018-04-24T00:18:11.365Z,101028.61
2018-04-24T00:20:38.898Z,101028.91
2018-04-24T00:23:06.419Z,101038.73
2018-04-24T00:25:33.975Z,101034.61
2018-04-24T00:28:01.509Z,101029.53
2018-04-24T00:30:29.051Z,101034.19
2018-04-24T00:32:56.628Z,101037.29
2018-04-24T00:35:24.578Z,101036.14
2018-04-24T00:37:52.122Z,101039.38
2018-04-24T00:40:19.654Z,101038.73
2018-04-24T00:42:47.478Z,101041.65
2018-04-24T00:45:14.986Z,101042.97
2018-04-24T00:47:42.511Z,101047.34
2018-04-24T00:50:10.359Z,101039.23
2018-04-24T00:52:38.128Z,101036.55
2018-04-24T00:55:05.844Z,101041.09
2018-04-24T00:57:33.378Z,101045.55
2018-04-24T01:00:00.903Z,101042.23
2018-04-24T01:02:28.446Z,101047.63
2018-04-24T01:04:56.028Z,101040.37
2018-04-24T01:07:23.794Z,101038.50
2018-04-24T01:09:51.763Z,101039.84
2018-04-24T01:12:19.527Z,101044.50
2018-04-24T01:14:47.393Z,101045.83
2018-04-24T01:17:15.195Z,101052.04
2018-04-24T01:19:42.712Z,101068.48
2018-04-24T01:22:10.375Z,101058.52
2018-04-24T01:24:37.979Z,101061.21
2018-04-24T01:27:05.596Z,101067.44
2018-04-24T01:29:33.157Z,101071.61
2018-04-24T01:32:00.871Z,101065.80
2018-04-24T01:34:28.417Z,101066.63
2018-04-24T01:36:56.353Z,101077.39
2018-04-24T01:39:24.544Z,101074.37
2018-04-24T01:41:52.082Z,101061.14
2018-04-24T01:44:19.640Z,101069.81
2018-04-24T01:46:47.200Z,101068.34
2018-04-24T01:49:14.739Z,101068.34
2018-04-24T01:51:42.331Z,101062.97
2018-04-24T01:54:09.851Z,101077.53
2018-04-24T01:56:37.376Z,101086.31
2018-04-24T01:59:04.959Z,101074.11
2018-04-24T02:01:32.509Z,101072.03
2018-04-24T02:04:00.047Z,101077.09
2018-04-24T02:06:27.580Z,101064.48
2018-04-24T02:08:55.353Z,101059.70
2018-04-24T02:11:23.086Z,101063.78
2018-04-24T02:13:50.681Z,101074.20
2018-04-24T02:16:18.574Z,101084.55
2018-04-24T02:18:46.128Z,101086.62
2018-04-24T02:21:13.717Z,101091.52
2018-04-24T02:23:41.313Z,101083.66
2018-04-24T02:26:08.913Z,101084.75
2018-04-24T02:28:36.530Z,101087.26
2018-04-24T02:31:04.052Z,101084.38
2018-04-24T02:33:31.593Z,101086.65
2018-04-24T02:35:59.112Z,101085.22
2018-04-24T02:38:27.044Z,101092.44
2018-04-24T02:40:54.575Z,101097.69
2018-04-24T02:43:22.081Z,101104.55
2018-04-24T02:45:49.702Z,101096.02
2018-04-24T02:48:17.225Z,101088.67
2018-04-24T02:50:44.752Z,101091.67
2018-04-24T02:53:12.393Z,101086.12
2018-04-24T02:55:39.906Z,101079.80
2018-04-24T02:58:07.816Z,101078.74
2018-04-24T03:00:35.615Z,101080.69
2018-04-24T03:03:03.161Z,101075.45
2018-04-24T03:05:30.682Z,101075.75
2018-04-24T03:07:58.207Z,101074.72
2018-04-24T03:10:25.752Z,101064.77
2018-04-24T03:12:53.295Z,101062.45
2018-04-24T03:15:21.142Z,101061.69
2018-04-24T03:17:48.708Z,101063.84
2018-04-24T03:20:16.244Z,101048.45
2018-04-24T03:22:43.772Z,101050.95
2018-04-24T03:25:11.311Z,101045.15
2018-04-24T03:27:38.844Z,101047.06
2018-04-24T03:30:06.433Z,101043.87
2018-04-24T03:32:33.946Z,101040.52
2018-04-24T03:35:01.487Z,101041.03
2018-04-24T03:37:29.293Z,101046.47
2018-04-24T03:39:56.838Z,101038.33
2018-04-24T03:42:24.622Z,101042.74
2018-04-24T03:44:52.156Z,101045.38
2018-04-24T03:47:19.684Z,101052.70
2018-04-24T03:49:47.206Z,101052.86
2018-04-24T03:52:15.084Z,101048.01
2018-04-24T03:54:43.011Z,101054.86
2018-04-24T03:57:10.584Z,101057.49
2018-04-24T04:02:05.017Z,101050.09
2018-04-24T04:04:32.531Z,101037.08
2018-04-24T04:07:00.057Z,101041.64
2018-04-24T04:09:27.576Z,101039.67
2018-04-24T04:11:55.087Z,101032.20
2018-04-24T04:14:22.633Z,101036.30
2018-04-24T04:16:50.471Z,101032.88
2018-04-24T04:19:29.670Z,101033.03
2018-04-24T04:22:09.028Z,101028.62
2018-04-24T04:24:40.186Z,101036.63
2018-04-24T04:27:07.950Z,101034.55
2018-04-24T04:29:36.376Z,101038.09
2018-04-24T04:32:03.915Z,101037.70
2018-04-24T04:34:31.426Z,101035.70
2018-04-24T04:36:58.967Z,101037.08
2018-04-24T04:39:26.500Z,101031.95
2018-04-24T04:41:54.053Z,101026.63
2018-04-24T04:44:21.599Z,101023.15
2018-04-24T04:46:49.118Z,101017.63
2018-04-24T04:49:16.649Z,101026.55
2018-04-24T04:51:44.147Z,101027.39
2018-04-24T04:54:11.748Z,101020.48
2018-04-24T04:56:39.264Z,101015.95
2018-04-24T04:59:06.799Z,101017.70
2018-04-24T05:01:34.323Z,101014.03
2018-04-24T05:04:01.825Z,101017.50
2018-04-24T05:06:29.382Z,101019.34
2018-04-24T05:08:56.915Z,101020.83
2018-04-24T05:11:24.438Z,101017.50
2018-04-24T05:13:52.007Z,101019.16
2018-04-24T05:16:19.566Z,101023.17
2018-04-24T05:18:47.547Z,101022.09
2018-04-24T05:21:15.164Z,101011.36
2018-04-24T05:23:42.697Z,101011.88
2018-04-24T05:26:10.213Z,101007.05
2018-04-24T05:28:38.003Z,101005.50
2018-04-24T05:31:05.558Z,101004.92
2018-04-24T05:33:33.100Z,101014.11
2018-04-24T05:36:00.878Z,101020.46
2018-04-24T05:38:28.434Z,101020.39
2018-04-24T05:40:55.961Z,101014.80
2018-04-24T05:43:23.517Z,101018.36
2018-04-24T05:45:51.037Z,101009.09
2018-04-24T05:48:18.561Z,101012.55
2018-04-24T05:50:46.341Z,101015.28
2018-04-24T05:53:13.917Z,101015.55
2018-04-24T05:55:41.562Z,101019.30
2018-04-24T05:58:09.122Z,101020.08
2018-04-24T06:00:36.743Z,101013.52
2018-04-24T06:03:04.427Z,101001.31
2018-04-24T06:05:31.929Z,100981.72
2018-04-24T06:08:00.001Z,100984.80
2018-04-24T06:10:28.560Z,100975.73
2018-04-24T06:12:56.436Z,100983.20
2018-04-24T06:15:24.021Z,100980.98
2018-04-24T06:17:51.999Z,100993.00
2018-04-24T06:20:19.935Z,101002.86
2018-04-24T06:22:49.561Z,101014.76
2018-04-24T06:25:17.753Z,101008.89
2018-04-24T06:27:49.620Z,101010.39
2018-04-24T06:30:17.322Z,101005.72
2018-04-24T06:32:45.197Z,101001.56
2018-04-24T06:35:12.783Z,100998.20
2018-04-24T06:37:40.369Z,100984.08
2018-04-24T06:40:07.946Z,100987.64
2018-04-24T06:42:35.763Z,100996.56
2018-04-24T06:45:03.742Z,100997.78
2018-04-24T06:47:31.328Z,101004.67
2018-04-24T06:49:58.838Z,101002.19
2018-04-24T06:52:26.648Z,101002.49
2018-04-24T06:54:54.418Z,100992.55
2018-04-24T06:57:22.195Z,100999.50
2018-04-24T06:59:49.709Z,100990.97
2018-04-24T07:02:17.227Z,100986.20
2018-04-24T07:04:44.759Z,100984.96
2018-04-24T07:07:12.303Z,100986.45
2018-04-24T07:09:40.038Z,100992.17
2018-04-24T07:12:07.589Z,100982.02
2018-04-24T07:14:35.096Z,100972.28
2018-04-24T07:17:02.653Z,100974.53
2018-04-24T07:19:31.337Z,100974.78
2018-04-24T07:21:59.308Z,100965.45
2018-04-24T07:24:26.864Z,100965.36
2018-04-24T07:26:54.427Z,100959.31
2018-04-24T07:29:22.059Z,100959.00
2018-04-24T07:31:50.057Z,100953.14
2018-04-24T07:34:17.898Z,100947.22
2018-04-24T07:36:45.477Z,100944.52
2018-04-24T07:39:13.030Z,100936.47
2018-04-24T07:41:40.771Z,100946.61
2018-04-24T07:44:08.582Z,100941.22
2018-04-24T07:46:36.227Z,100948.22
2018-04-24T07:49:03.681Z,100946.38
2018-04-24T07:51:31.333Z,100936.16
2018-04-24T07:54:02.288Z,100935.19
2018-04-24T07:56:29.878Z,100933.33
2018-04-24T07:58:57.997Z,100928.61
2018-04-24T08:01:25.524Z,100917.22
2018-04-24T08:03:53.080Z,100916.73
2018-04-24T08:06:20.630Z,100923.47
2018-04-24T08:08:48.145Z,100917.94
2018-04-24T08:11:15.682Z,100918.08
2018-04-24T08:13:43.193Z,100908.30
2018-04-24T08:16:10.697Z,100916.71
2018-04-24T08:18:38.293Z,100908.19
2018-04-24T08:21:05.859Z,100899.84
2018-04-24T08:23:33.452Z,100906.84
2018-04-24T08:26:00.980Z,100905.51
2018-04-24T08:28:28.490Z,100888.07
2018-04-24T08:30:56.026Z,100903.09
2018-04-24T08:33:23.789Z,100903.54
2018-04-24T08:35:51.359Z,100904.41
2018-04-24T08:38:18.873Z,100900.69
2018-04-24T08:40:46.442Z,100904.64
2018-04-24T08:43:13.996Z,100903.81
2018-04-24T08:45:41.510Z,100888.64
2018-04-24T08:48:09.085Z,100892.80
2018-04-24T08:50:36.608Z,100900.80
2018-04-24T08:53:04.118Z,100904.57
2018-04-24T08:55:31.673Z,100915.10
2018-04-24T08:57:59.179Z,100929.69
2018-04-24T09:00:26.725Z,100921.17
2018-04-24T09:02:54.518Z,100919.04
2018-04-24T09:05:22.238Z,100920.87
2018-04-24T09:07:49.942Z,100912.67
2018-04-24T09:10:17.548Z,100906.19
2018-04-24T09:12:45.127Z,100914.09
2018-04-24T09:15:12.717Z,100923.70
2018-04-24T09:17:40.245Z,100923.42
2018-04-24T09:20:07.923Z,100917.25
2018-04-24T09:22:35.425Z,100927.12
2018-04-24T09:25:02.974Z,100912.56
2018-04-24T09:27:30.491Z,100904.45
2018-04-24T09:30:03.936Z,100911.98
2018-04-24T09:32:31.495Z,100909.97
2018-04-24T09:34:59.026Z,100906.27
2018-04-24T09:37:26.590Z,100904.47
2018-04-24T09:39:54.193Z,100909.23
2018-04-24T09:42:21.752Z,100906.22
2018-04-24T09:44:49.273Z,100915.52
2018-04-24T09:47:16.869Z,100918.31
2018-04-24T09:49:44.398Z,100914.06
2018-04-24T09:52:11.915Z,100913.03
2018-04-24T09:54:39.468Z,100918.92
2018-04-24T09:57:07.027Z,100912.10
2018-04-24T09:59:34.558Z,100917.69
2018-04-24T10:02:02.095Z,100920.28
2018-04-24T10:04:29.882Z,100938.09
2018-04-24T10:06:57.454Z,100946.61
2018-04-24T10:09:25.091Z,100928.09
2018-04-24T10:11:52.615Z,100923.82
2018-04-24T10:14:20.164Z,100946.11
2018-04-24T10:16:47.699Z,100937.67
2018-04-24T10:19:15.551Z,100943.22
2018-04-24T10:21:43.121Z,100941.46
2018-04-24T10:24:10.639Z,100944.09
2018-04-24T10:26:38.453Z,100944.59
2018-04-24T10:29:05.956Z,100947.55
2018-04-24T10:31:33.521Z,100947.44
2018-04-24T10:34:01.106Z,100947.61
2018-04-24T10:36:28.988Z,100944.92
2018-04-24T10:38:57.057Z,100938.74
2018-04-24T10:41:24.950Z,100947.41
2018-04-24T10:43:52.722Z,100935.56
2018-04-24T10:46:20.359Z,100930.06
2018-04-24T10:48:48.221Z,100934.11
2018-04-24T10:51:16.518Z,100939.33
2018-04-24T10:53:44.055Z,100932.02
2018-04-24T10:56:11.642Z,100935.97
2018-04-24T10:58:39.183Z,100931.78
2018-04-24T11:01:06.712Z,100934.74
2018-04-24T11:03:34.285Z,100936.72
2018-04-24T11:06:01.800Z,100941.97
2018-04-24T11:08:29.360Z,100943.78
2018-04-24T11:10:56.878Z,100949.17
2018-04-24T11:13:24.394Z,100943.30
2018-04-24T11:15:51.933Z,100947.89
2018-04-24T11:18:19.470Z,100946.66
2018-04-24T11:20:46.996Z,100949.24
2018-04-24T11:23:14.605Z,100958.64
2018-04-24T11:25:42.139Z,100948.06
2018-04-24T11:28:09.885Z,100957.91
2018-04-24T11:30:37.427Z,100955.63
2018-04-24T11:33:04.958Z,100950.10
2018-04-24T11:35:32.511Z,100955.56
2018-04-24T11:38:00.060Z,100954.29
2018-04-24T11:40:27.582Z,100946.58
2018-04-24T11:42:55.159Z,100948.05
2018-04-24T11:45:23.343Z,100956.70
2018-04-24T11:47:50.893Z,100953.66
2018-04-24T11:50:18.461Z,100952.08
2018-04-24T11:52:46.026Z,100947.80
2018-04-24T11:55:13.537Z,100948.09
2018-04-24T11:57:41.157Z,100946.03
2018-04-24T12:00:08.719Z,100946.66
2018-04-24T12:02:36.261Z,100951.11
2018-04-24T12:05:03.823Z,100944.61
2018-04-24T12:07:31.423Z,100956.32
2018-04-24T12:09:59.021Z,100959.98
2018-04-24T12:12:26.829Z,100950.62
2018-04-24T12:14:54.365Z,100942.86
2018-04-24T12:17:21.938Z,100945.43
2018-04-24T12:19:50.729Z,100956.35
2018-04-24T12:22:18.339Z,100961.27
2018-04-24T12:24:45.882Z,100958.89
2018-04-24T12:27:13.435Z,100967.07
2018-04-24T12:29:41.231Z,100959.56
2018-04-24T12:32:08.756Z,100970.23
2018-04-24T12:34:36.332Z,100969.78
2018-04-24T12:37:03.872Z,100975.05
2018-04-24T12:39:31.402Z,100973.08
2018-04-24T12:41:58.946Z,100975.23
2018-04-24T12:44:26.749Z,100967.86
2018-04-24T12:46:54.350Z,100967.03
2018-04-24T12:49:21.958Z,100973.49
2018-04-24T12:51:49.588Z,100968.23
2018-04-24T12:54:17.218Z,100965.03
2018-04-24T12:56:45.160Z,100978.59
2018-04-24T12:59:12.759Z,100966.27
2018-04-24T13:01:41.186Z,100954.28
2018-04-24T13:04:08.731Z,100960.80
2018-04-24T13:06:36.417Z,100957.36
2018-04-24T13:09:03.965Z,100966.81
2018-04-24T13:11:31.508Z,100967.22
2018-04-24T13:13:59.276Z,100971.26
2018-04-24T13:16:27.172Z,100964.51
2018-04-24T13:18:55.068Z,100966.06
2018-04-24T13:21:22.596Z,100967.62
2018-04-24T13:23:50.161Z,100978.27
2018-04-24T13:26:17.710Z,100972.27
2018-04-24T13:28:45.615Z,100975.81
2018-04-24T13:31:13.224Z,100988.31
2018-04-24T13:33:40.730Z,100978.17
2018-04-24T13:36:08.316Z,100979.31
2018-04-24T13:38:36.164Z,100972.30
2018-04-24T13:41:03.982Z,100973.53
2018-04-24T13:43:31.527Z,100977.36
2018-04-24T13:45:59.539Z,100975.38
2018-04-24T13:48:27.102Z,100979.01
2018-04-24T13:50:54.697Z,100976.20
2018-04-24T13:53:22.301Z,100970.58
2018-04-24T13:55:49.851Z,100961.88
2018-04-24T13:58:17.421Z,100958.53
2018-04-24T14:00:45.182Z,100953.52
2018-04-24T14:03:12.749Z,100945.14
2018-04-24T14:05:40.322Z,100928.17
2018-04-24T14:08:07.897Z,100918.73
2018-04-24T14:10:35.453Z,100923.68
2018-04-24T14:13:02.969Z,100935.80
2018-04-24T14:15:30.560Z,100938.75
2018-04-24T14:17:58.077Z,100940.09
2018-04-24T14:20:25.658Z,100938.63
2018-04-24T14:22:54.074Z,100928.49
2018-04-24T14:25:21.635Z,100932.73
2018-04-24T14:27:51.691Z,100931.08
2018-04-24T14:30:19.613Z,100934.31
2018-04-24T14:32:48.574Z,100940.70
2018-04-24T14:35:16.529Z,100934.08
2018-04-24T14:37:44.388Z,100927.12
2018-04-24T14:40:19.758Z,100928.21
2018-04-24T14:42:48.003Z,100926.85
2018-04-24T14:45:17.363Z,100930.17
2018-04-24T14:47:45.042Z,100932.61
2018-04-24T14:50:12.666Z,100934.45
2018-04-24T14:52:40.283Z,100942.27
2018-04-24T14:55:07.880Z,100938.02
2018-04-24T14:57:35.482Z,100930.53
2018-04-24T15:00:03.041Z,100924.34
2018-04-24T15:02:30.601Z,100928.45
2018-04-24T15:04:58.241Z,100928.67
2018-04-24T15:07:25.766Z,100931.90
2018-04-24T15:09:53.343Z,100919.08
2018-04-24T15:12:20.869Z,100919.27
2018-04-24T15:14:48.391Z,100923.02
2018-04-24T15:17:15.938Z,100924.55
2018-04-24T15:19:43.579Z,100933.89
2018-04-24T15:22:11.147Z,100937.19
2018-04-24T15:24:39.555Z,100936.78
2018-04-24T15:27:07.109Z,100931.51
2018-04-24T15:29:34.941Z,100936.56
2018-04-24T15:32:02.476Z,100934.94
2018-04-24T15:34:30.069Z,100936.88
2018-04-24T15:36:57.621Z,100937.39
2018-04-24T15:39:25.206Z,100930.38
2018-04-24T15:41:52.787Z,100940.30
2018-04-24T15:44:20.570Z,100941.04
2018-04-24T15:46:48.109Z,100931.50
2018-04-24T15:49:15.631Z,100923.73
2018-04-24T15:51:43.195Z,100924.06
2018-04-24T15:54:11.160Z,100920.81
2018-04-24T15:56:38.752Z,100922.50
2018-04-24T15:59:06.663Z,100919.20
2018-04-24T16:01:34.230Z,100920.96
2018-04-24T16:04:02.054Z,100926.64
2018-04-24T16:06:29.636Z,100915.16
2018-04-24T16:08:57.142Z,100921.23
2018-04-24T16:11:24.701Z,100927.02
2018-04-24T16:13:52.601Z,100922.37
2018-04-24T16:16:20.154Z,100930.12
2018-04-24T16:18:47.685Z,100930.05
2018-04-24T16:21:15.274Z,100925.50
2018-04-24T16:23:43.885Z,100922.10
2018-04-24T16:26:11.475Z,100932.13
2018-04-24T16:28:39.032Z,100921.66
2018-04-24T16:31:06.574Z,100917.45
2018-04-24T16:33:34.100Z,100914.44
2018-04-24T16:36:01.630Z,100908.84
2018-04-24T16:38:29.175Z,100913.39
2018-04-24T16:40:56.784Z,100921.15
2018-04-24T16:43:24.304Z,100914.34
2018-04-24T16:45:51.862Z,100918.87
2018-04-24T16:48:19.395Z,100915.36
2018-04-24T16:50:47.165Z,100912.25
2018-04-24T16:53:14.706Z,100908.23
2018-04-24T16:55:42.375Z,100912.03
2018-04-24T16:58:09.973Z,100905.49
2018-04-24T17:00:37.564Z,100910.82
2018-04-24T17:03:05.436Z,100914.55
2018-04-24T17:05:33.532Z,100906.66
2018-04-24T17:08:01.070Z,100908.97
2018-04-24T17:10:28.684Z,100910.83
2018-04-24T17:12:56.597Z,100908.80
2018-04-24T17:15:24.426Z,100907.41
2018-04-24T17:17:52.019Z,100909.23
2018-04-24T17:20:19.568Z,100903.84
2018-04-24T17:22:47.136Z,100905.00
2018-04-24T17:25:14.649Z,100906.22
2018-04-24T17:27:42.209Z,100906.31
2018-04-24T17:30:10.667Z,100904.98
2018-04-24T17:32:38.329Z,100899.91
2018-04-24T17:35:05.888Z,100900.66
2018-04-24T17:37:33.754Z,100898.67
2018-04-24T17:40:02.024Z,100891.33
2018-04-24T17:42:29.585Z,100897.95
2018-04-24T17:44:57.113Z,100890.91
2018-04-24T17:47:24.629Z,100890.39
2018-04-24T17:49:52.313Z,100887.82
2018-04-24T17:52:19.858Z,100890.41
2018-04-24T17:54:47.429Z,100890.39
2018-04-24T17:57:15.135Z,100895.13
2018-04-24T17:59:42.753Z,100898.02
2018-04-24T18:02:10.416Z,100902.69
2018-04-24T18:04:38.474Z,100898.52
2018-04-24T18:07:06.121Z,100899.36
2018-04-24T18:09:33.746Z,100894.89
2018-04-24T18:12:01.288Z,100895.22
2018-04-24T18:14:28.837Z,100901.00
2018-04-24T18:16:56.406Z,100901.72
2018-04-24T18:19:23.938Z,100905.66
2018-04-24T18:21:51.516Z,100903.69
2018-04-24T18:24:19.070Z,100903.05
2018-04-24T18:26:46.842Z,100898.28
2018-04-24T18:29:14.437Z,100904.50
2018-04-24T18:31:42.121Z,100903.28
2018-04-24T18:34:09.705Z,100903.12
2018-04-24T18:36:37.251Z,100896.20
2018-04-24T18:39:05.008Z,100891.04
2018-04-24T18:41:32.529Z,100893.41
2018-04-24T18:44:00.059Z,100898.91
2018-04-24T18:46:27.632Z,100889.52
2018-04-24T18:48:55.171Z,100891.98
2018-04-24T18:51:22.729Z,100889.61
2018-04-24T18:53:50.415Z,100885.58
2018-04-24T18:56:17.951Z,100889.27
2018-04-24T18:58:45.555Z,100885.97
2018-04-24T19:01:13.249Z,100885.66
2018-04-24T19:03:40.803Z,100883.91
2018-04-24T19:06:08.339Z,100883.69
2018-04-24T19:08:35.917Z,100880.09
2018-04-24T19:11:05.457Z,100878.22
2018-04-24T19:13:34.116Z,100874.72
2018-04-24T19:16:01.809Z,100874.93
2018-04-24T19:18:34.819Z,100879.56
2018-04-24T19:21:02.469Z,100867.05
2018-04-24T19:23:30.069Z,100879.03
2018-04-24T19:25:58.631Z,100882.73
2018-04-24T19:28:26.403Z,100877.68
2018-04-24T19:30:53.948Z,100875.41
2018-04-24T19:33:21.472Z,100875.61
2018-04-24T19:35:49.117Z,100876.73
2018-04-24T19:38:16.652Z,100871.85
2018-04-24T19:40:59.053Z,100867.20
2018-04-24T19:43:30.702Z,100873.09
2018-04-24T19:45:58.405Z,100874.66
2018-04-24T19:48:31.445Z,100871.16
2018-04-24T19:50:58.991Z,100871.98
2018-04-24T19:53:26.539Z,100872.90
2018-04-24T19:55:54.150Z,100873.09
2018-04-24T19:58:22.763Z,100868.05
2018-04-24T20:00:50.799Z,100864.74
2018-04-24T20:03:18.591Z,100858.08
2018-04-24T20:05:48.994Z,100855.31
2018-04-24T20:08:20.344Z,100851.27
2018-04-24T20:10:48.811Z,100855.81
2018-04-24T20:13:16.326Z,100845.41
2018-04-24T20:15:43.857Z,100839.30
2018-04-24T20:18:15.158Z,100823.41
2018-04-24T20:20:47.598Z,100829.93
2018-04-24T20:23:15.596Z,100826.17
2018-04-24T20:25:44.562Z,100823.41
2018-04-24T20:28:12.354Z,100821.23
2018-04-24T20:30:40.008Z,100831.53
2018-04-24T20:33:08.407Z,100832.61
2018-04-24T20:35:38.313Z,100835.73
2018-04-24T20:38:06.041Z,100826.14
2018-04-24T20:40:39.868Z,100830.45
2018-04-24T20:43:07.576Z,100820.23
2018-04-24T20:45:37.416Z,100818.59
2018-04-24T20:48:06.077Z,100816.84
2018-04-24T20:50:36.958Z,100814.69
2018-04-24T20:53:05.836Z,100804.16
2018-04-24T20:55:33.561Z,100810.48
2018-04-24T20:58:03.421Z,100809.79
2018-04-24T21:00:31.698Z,100811.09
2018-04-24T21:02:59.386Z,100807.47
2018-04-24T21:05:26.975Z,100806.80
2018-04-24T21:07:54.594Z,100808.98
2018-04-24T21:10:22.135Z,100804.55
2018-04-24T21:12:49.749Z,100796.27
2018-04-24T21:15:17.434Z,100801.00
2018-04-24T21:17:45.081Z,100801.54
2018-04-24T21:20:12.845Z,100801.85
2018-04-24T21:22:40.491Z,100797.97
2018-04-24T21:25:08.374Z,100786.36
2018-04-24T21:27:35.935Z,100790.17
2018-04-24T21:30:03.492Z,100787.88
2018-04-24T21:32:31.342Z,100785.34
2018-04-24T21:34:59.154Z,100780.88
2018-04-24T21:37:26.775Z,100776.43
2018-04-24T21:39:54.324Z,100776.89
2018-04-24T21:42:21.875Z,100779.46
2018-04-24T21:44:49.402Z,100774.30
2018-04-24T21:47:17.020Z,100774.93
2018-04-24T21:49:44.556Z,100769.58
2018-04-24T21:52:12.124Z,100764.84
2018-04-24T21:54:39.656Z,100770.08
2018-04-24T21:57:07.207Z,100766.04
2018-04-24T21:59:35.128Z,100764.75
2018-04-24T22:02:02.683Z,100762.70
2018-04-24T22:04:30.255Z,100756.83
2018-04-24T22:06:57.853Z,100755.58
2018-04-24T22:09:25.372Z,100749.29
2018-04-24T22:11:52.920Z,100748.09
2018-04-24T22:14:20.553Z,100740.31
2018-04-24T22:16:48.081Z,100738.31
2018-04-24T22:19:15.645Z,100728.13
2018-04-24T22:21:43.228Z,100728.84
2018-04-24T22:24:10.776Z,100724.30
2018-04-24T22:26:38.325Z,100722.03
2018-04-24T22:29:05.842Z,100720.92
2018-04-24T22:31:33.731Z,100721.63
2018-04-24T22:34:01.295Z,100719.36
2018-04-24T22:36:29.150Z,100711.31
2018-04-24T22:38:56.685Z,100717.99
2018-04-24T22:41:24.224Z,100716.45
2018-04-24T22:43:51.742Z,100717.77
2018-04-24T22:46:19.284Z,100715.30
2018-04-24T22:48:47.184Z,100712.90
2018-04-24T22:51:15.026Z,100705.68
2018-04-24T22:53:42.812Z,100689.68
2018-04-24T22:56:10.382Z,100689.48
2018-04-24T22:58:37.967Z,100693.02
2018-04-24T23:01:05.526Z,100681.75
2018-04-24T23:03:33.082Z,100679.29
2018-04-24T23:06:00.655Z,100681.03
2018-04-24T23:08:28.178Z,100678.86
2018-04-24T23:11:07.508Z,100673.81
2018-04-24T23:13:46.797Z,100678.84
2018-04-24T23:16:26.106Z,100674.48
2018-04-24T23:19:05.472Z,100678.89
2018-04-24T23:21:32.474Z,100674.87
2018-04-24T23:23:59.993Z,100677.53
2018-04-24T23:26:28.550Z,100674.22
2018-04-24T23:28:56.111Z,100669.66
2018-04-24T23:31:23.641Z,100668.53
2018-04-24T23:33:51.158Z,100662.05
2018-04-24T23:36:18.806Z,100662.38
2018-04-24T23:38:46.331Z,100653.69
2018-04-24T23:41:14.328Z,100645.96
2018-04-24T23:43:42.188Z,100645.98
2018-04-24T23:46:09.701Z,100652.39
2018-04-24T23:48:37.235Z,100647.25
2018-04-24T23:51:04.788Z,100641.62
2018-04-24T23:53:32.293Z,100644.94
2018-04-24T23:55:59.830Z,100643.33
2018-04-24T23:58:27.393Z,100647.41
